sensor_id;sensor_type;location;lat;lon;timestamp;temperature;humidity
21590;DHT22;10957;50.968;6.828;2023-04-06T00:03:50;1.80;99.90
21590;DHT22;10957;50.968;6.828;2023-04-06T00:08:51;1.90;99.90
21590;DHT22;10957;50.968;6.828;2023-04-06T00:13:52;1.60;99.90
21590;DHT22;10957;50.968;6.828;2023-04-06T00:18:54;1.60;99.90
21590;DHT22;10957;50.968;6.828;2023-04-06T00:23:55;1.70;99.90
21590;DHT22;10957;50.968;6.828;2023-04-06T00:28:56;1.60;99.90
21590;DHT22;10957;50.968;6.828;2023-04-06T00:33:59;1.50;99.90
21590;DHT22;10957;50.968;6.828;2023-04-06T00:39:01;1.60;99.90
21590;DHT22;10957;50.968;6.828;2023-04-06T00:44:02;1.50;99.90
21590;DHT22;10957;50.968;6.828;2023-04-06T00:49:04;1.60;99.90
21590;DHT22;10957;50.968;6.828;2023-04-06T00:54:05;1.30;99.90
21590;DHT22;10957;50.968;6.828;2023-04-06T00:59:08;1.30;99.90
21590;DHT22;10957;50.968;6.828;2023-04-06T01:04:10;1.40;99.90
21590;DHT22;10957;50.968;6.828;2023-04-06T01:09:16;1.50;99.90
21590;DHT22;10957;50.968;6.828;2023-04-06T01:14:19;1.50;99.90
21590;DHT22;10957;50.968;6.828;2023-04-06T01:19:28;1.40;99.90
21590;DHT22;10957;50.968;6.828;2023-04-06T01:24:30;1.30;99.90
21590;DHT22;10957;50.968;6.828;2023-04-06T01:29:41;1.30;99.90
21590;DHT22;10957;50.968;6.828;2023-04-06T01:34:46;1.30;99.90
21590;DHT22;10957;50.968;6.828;2023-04-06T01:39:47;1.20;99.90
21590;DHT22;10957;50.968;6.828;2023-04-06T01:44:59;1.00;99.90
21590;DHT22;10957;50.968;6.828;2023-04-06T01:50:00;1.10;99.90
21590;DHT22;10957;50.968;6.828;2023-04-06T01:55:03;1.20;99.90
21590;DHT22;10957;50.968;6.828;2023-04-06T02:00:23;1.20;99.90
21590;DHT22;10957;50.968;6.828;2023-04-06T02:05:30;0.80;99.90
21590;DHT22;10957;50.968;6.828;2023-04-06T02:10:33;1.10;99.90
21590;DHT22;10957;50.968;6.828;2023-04-06T02:15:39;0.90;99.90
21590;DHT22;10957;50.968;6.828;2023-04-06T02:20:41;0.90;99.90
21590;DHT22;10957;50.968;6.828;2023-04-06T02:25:42;0.70;99.90
21590;DHT22;10957;50.968;6.828;2023-04-06T02:30:44;0.80;99.90
21590;DHT22;10957;50.968;6.828;2023-04-06T02:35:46;0.60;99.90
21590;DHT22;10957;50.968;6.828;2023-04-06T02:40:47;0.70;99.90
21590;DHT22;10957;50.968;6.828;2023-04-06T02:45:55;0.80;99.90
21590;DHT22;10957;50.968;6.828;2023-04-06T02:50:59;0.80;99.90
21590;DHT22;10957;50.968;6.828;2023-04-06T02:56:00;0.90;99.90
21590;DHT22;10957;50.968;6.828;2023-04-06T03:01:11;0.70;99.90
21590;DHT22;10957;50.968;6.828;2023-04-06T03:06:14;0.80;99.90
21590;DHT22;10957;50.968;6.828;2023-04-06T03:11:16;0.60;99.90
21590;DHT22;10957;50.968;6.828;2023-04-06T03:16:18;0.60;99.90
21590;DHT22;10957;50.968;6.828;2023-04-06T03:21:20;0.80;99.90
21590;DHT22;10957;50.968;6.828;2023-04-06T03:26:24;0.40;99.90
21590;DHT22;10957;50.968;6.828;2023-04-06T03:31:27;0.60;99.90
21590;DHT22;10957;50.968;6.828;2023-04-06T03:36:34;0.40;99.90
21590;DHT22;10957;50.968;6.828;2023-04-06T03:41:37;0.30;99.90
21590;DHT22;10957;50.968;6.828;2023-04-06T03:46:47;0.30;99.90
21590;DHT22;10957;50.968;6.828;2023-04-06T03:51:48;0.60;1.00
21590;DHT22;10957;50.968;6.828;2023-04-06T03:56:50;0.30;1.00
21590;DHT22;10957;50.968;6.828;2023-04-06T04:01:52;0.40;1.00
21590;DHT22;10957;50.968;6.828;2023-04-06T04:06:54;0.00;1.00
21590;DHT22;10957;50.968;6.828;2023-04-06T04:11:55;0.10;1.00
21590;DHT22;10957;50.968;6.828;2023-04-06T04:16:57;0.10;1.00
21590;DHT22;10957;50.968;6.828;2023-04-06T04:21:58;0.00;1.00
21590;DHT22;10957;50.968;6.828;2023-04-06T04:27:06;0.30;1.00
21590;DHT22;10957;50.968;6.828;2023-04-06T04:32:09;0.00;1.00
21590;DHT22;10957;50.968;6.828;2023-04-06T04:37:10;0.20;1.00
21590;DHT22;10957;50.968;6.828;2023-04-06T04:42:23;-0.10;1.00
21590;DHT22;10957;50.968;6.828;2023-04-06T04:47:28;0.10;1.00
21590;DHT22;10957;50.968;6.828;2023-04-06T04:52:29;-0.20;1.00
21590;DHT22;10957;50.968;6.828;2023-04-06T04:57:39;-0.10;1.00
21590;DHT22;10957;50.968;6.828;2023-04-06T05:02:41;0.10;1.00
21590;DHT22;10957;50.968;6.828;2023-04-06T05:07:53;0.30;1.00
21590;DHT22;10957;50.968;6.828;2023-04-06T05:13:17;0.30;1.00
21590;DHT22;10957;50.968;6.828;2023-04-06T05:18:21;0.60;1.00
21590;DHT22;10957;50.968;6.828;2023-04-06T05:23:22;0.50;1.00
21590;DHT22;10957;50.968;6.828;2023-04-06T05:28:26;0.80;1.00
21590;DHT22;10957;50.968;6.828;2023-04-06T05:33:27;0.70;1.00
21590;DHT22;10957;50.968;6.828;2023-04-06T05:38:39;0.90;1.00
21590;DHT22;10957;50.968;6.828;2023-04-06T05:44:10;1.10;1.00
21590;DHT22;10957;50.968;6.828;2023-04-06T05:49:13;1.00;1.00
21590;DHT22;10957;50.968;6.828;2023-04-06T05:54:14;1.00;1.00
21590;DHT22;10957;50.968;6.828;2023-04-06T05:59:17;1.30;1.00
21590;DHT22;10957;50.968;6.828;2023-04-06T06:04:19;1.50;1.00
21590;DHT22;10957;50.968;6.828;2023-04-06T06:09:23;1.60;99.90
21590;DHT22;10957;50.968;6.828;2023-04-06T06:14:36;1.80;99.90
21590;DHT22;10957;50.968;6.828;2023-04-06T06:19:38;2.30;99.90
21590;DHT22;10957;50.968;6.828;2023-04-06T06:24:42;2.40;99.90
21590;DHT22;10957;50.968;6.828;2023-04-06T06:29:45;2.50;99.90
21590;DHT22;10957;50.968;6.828;2023-04-06T06:34:46;2.80;99.90
21590;DHT22;10957;50.968;6.828;2023-04-06T06:39:48;3.20;99.90
21590;DHT22;10957;50.968;6.828;2023-04-06T06:44:51;3.40;99.90
21590;DHT22;10957;50.968;6.828;2023-04-06T06:49:52;3.50;99.90
21590;DHT22;10957;50.968;6.828;2023-04-06T06:54:54;4.10;99.90
21590;DHT22;10957;50.968;6.828;2023-04-06T06:59:57;4.40;99.90
21590;DHT22;10957;50.968;6.828;2023-04-06T07:05:02;4.80;99.90
21590;DHT22;10957;50.968;6.828;2023-04-06T07:10:06;5.20;99.90
21590;DHT22;10957;50.968;6.828;2023-04-06T07:15:08;5.90;99.90
21590;DHT22;10957;50.968;6.828;2023-04-06T07:20:10;6.30;99.90
21590;DHT22;10957;50.968;6.828;2023-04-06T07:25:11;7.10;99.90
21590;DHT22;10957;50.968;6.828;2023-04-06T07:30:13;6.70;99.90
21590;DHT22;10957;50.968;6.828;2023-04-06T07:35:15;7.00;99.90
21590;DHT22;10957;50.968;6.828;2023-04-06T07:40:18;6.90;99.90
21590;DHT22;10957;50.968;6.828;2023-04-06T07:45:21;7.60;99.90
21590;DHT22;10957;50.968;6.828;2023-04-06T07:50:22;7.80;99.90
21590;DHT22;10957;50.968;6.828;2023-04-06T07:55:24;8.10;99.90
21590;DHT22;10957;50.968;6.828;2023-04-06T08:00:25;8.20;99.90
21590;DHT22;10957;50.968;6.828;2023-04-06T08:05:27;8.80;99.90
21590;DHT22;10957;50.968;6.828;2023-04-06T08:10:28;8.80;99.90
21590;DHT22;10957;50.968;6.828;2023-04-06T08:15:30;8.90;99.90
21590;DHT22;10957;50.968;6.828;2023-04-06T08:20:31;9.30;99.90
21590;DHT22;10957;50.968;6.828;2023-04-06T08:25:35;9.70;99.90
21590;DHT22;10957;50.968;6.828;2023-04-06T08:30:39;9.60;99.90
21590;DHT22;10957;50.968;6.828;2023-04-06T08:35:40;9.80;99.90
21590;DHT22;10957;50.968;6.828;2023-04-06T08:40:42;10.90;99.90
21590;DHT22;10957;50.968;6.828;2023-04-06T08:45:45;11.20;99.90
21590;DHT22;10957;50.968;6.828;2023-04-06T08:50:46;11.20;99.90
21590;DHT22;10957;50.968;6.828;2023-04-06T08:55:48;11.20;99.90
21590;DHT22;10957;50.968;6.828;2023-04-06T09:00:50;11.20;99.90
21590;DHT22;10957;50.968;6.828;2023-04-06T09:05:53;11.50;99.90
21590;DHT22;10957;50.968;6.828;2023-04-06T09:10:55;11.90;99.90
21590;DHT22;10957;50.968;6.828;2023-04-06T09:16:04;11.70;99.90
21590;DHT22;10957;50.968;6.828;2023-04-06T09:21:07;11.70;99.90
21590;DHT22;10957;50.968;6.828;2023-04-06T09:26:15;11.80;99.90
21590;DHT22;10957;50.968;6.828;2023-04-06T09:31:22;12.00;99.90
21590;DHT22;10957;50.968;6.828;2023-04-06T09:41:35;12.80;99.90
21590;DHT22;10957;50.968;6.828;2023-04-06T09:46:42;12.60;99.90
21590;DHT22;10957;50.968;6.828;2023-04-06T09:51:52;12.80;99.90
21590;DHT22;10957;50.968;6.828;2023-04-06T09:56:56;13.00;99.90
21590;DHT22;10957;50.968;6.828;2023-04-06T10:02:01;13.30;99.90
21590;DHT22;10957;50.968;6.828;2023-04-06T10:07:06;13.20;99.90
21590;DHT22;10957;50.968;6.828;2023-04-06T10:12:09;13.60;99.90
21590;DHT22;10957;50.968;6.828;2023-04-06T10:17:10;13.20;99.90
21590;DHT22;10957;50.968;6.828;2023-04-06T10:22:25;13.50;99.90
21590;DHT22;10957;50.968;6.828;2023-04-06T10:27:28;13.30;99.90
21590;DHT22;10957;50.968;6.828;2023-04-06T10:32:37;13.30;99.90
21590;DHT22;10957;50.968;6.828;2023-04-06T10:37:52;13.30;99.90
21590;DHT22;10957;50.968;6.828;2023-04-06T10:42:55;13.50;99.90
21590;DHT22;10957;50.968;6.828;2023-04-06T10:47:56;13.40;99.90
21590;DHT22;10957;50.968;6.828;2023-04-06T10:53:02;13.90;99.90
21590;DHT22;10957;50.968;6.828;2023-04-06T10:58:06;13.60;99.90
21590;DHT22;10957;50.968;6.828;2023-04-06T11:03:08;13.30;99.90
21590;DHT22;10957;50.968;6.828;2023-04-06T11:08:09;13.90;99.90
21590;DHT22;10957;50.968;6.828;2023-04-06T11:13:11;13.80;99.90
21590;DHT22;10957;50.968;6.828;2023-04-06T11:18:12;13.60;99.90
21590;DHT22;10957;50.968;6.828;2023-04-06T11:23:22;14.20;99.90
21590;DHT22;10957;50.968;6.828;2023-04-06T11:28:24;14.20;99.90
21590;DHT22;10957;50.968;6.828;2023-04-06T11:33:26;13.90;99.90
21590;DHT22;10957;50.968;6.828;2023-04-06T11:38:28;13.90;99.90
21590;DHT22;10957;50.968;6.828;2023-04-06T11:43:30;14.10;99.90
21590;DHT22;10957;50.968;6.828;2023-04-06T11:48:31;13.80;99.90
21590;DHT22;10957;50.968;6.828;2023-04-06T11:53:46;14.10;99.90
21590;DHT22;10957;50.968;6.828;2023-04-06T11:58:47;14.00;99.90
21590;DHT22;10957;50.968;6.828;2023-04-06T12:03:49;14.00;99.90
21590;DHT22;10957;50.968;6.828;2023-04-06T12:08:51;14.40;99.90
21590;DHT22;10957;50.968;6.828;2023-04-06T12:13:53;14.50;99.90
21590;DHT22;10957;50.968;6.828;2023-04-06T12:18:54;14.00;99.90
21590;DHT22;10957;50.968;6.828;2023-04-06T12:23:57;14.20;99.90
21590;DHT22;10957;50.968;6.828;2023-04-06T12:29:00;14.40;99.90
21590;DHT22;10957;50.968;6.828;2023-04-06T12:34:08;14.30;99.90
21590;DHT22;10957;50.968;6.828;2023-04-06T12:39:09;14.50;99.90
21590;DHT22;10957;50.968;6.828;2023-04-06T12:44:12;14.00;99.90
21590;DHT22;10957;50.968;6.828;2023-04-06T12:49:13;14.20;99.90
21590;DHT22;10957;50.968;6.828;2023-04-06T12:54:17;13.60;99.90
21590;DHT22;10957;50.968;6.828;2023-04-06T12:59:19;13.80;99.90
21590;DHT22;10957;50.968;6.828;2023-04-06T13:04:21;13.40;99.90
21590;DHT22;10957;50.968;6.828;2023-04-06T13:09:24;13.40;99.90
21590;DHT22;10957;50.968;6.828;2023-04-06T13:14:25;13.00;99.90
21590;DHT22;10957;50.968;6.828;2023-04-06T13:19:26;12.70;99.90
21590;DHT22;10957;50.968;6.828;2023-04-06T13:24:28;12.90;99.90
21590;DHT22;10957;50.968;6.828;2023-04-06T13:29:29;12.70;99.90
21590;DHT22;10957;50.968;6.828;2023-04-06T13:34:31;12.30;99.90
21590;DHT22;10957;50.968;6.828;2023-04-06T13:39:32;12.00;99.90
21590;DHT22;10957;50.968;6.828;2023-04-06T13:44:34;11.80;99.90
21590;DHT22;10957;50.968;6.828;2023-04-06T13:49:36;11.70;99.90
21590;DHT22;10957;50.968;6.828;2023-04-06T13:54:37;11.90;99.90
21590;DHT22;10957;50.968;6.828;2023-04-06T13:59:39;11.90;99.90
21590;DHT22;10957;50.968;6.828;2023-04-06T14:04:40;11.80;99.90
21590;DHT22;10957;50.968;6.828;2023-04-06T14:09:42;11.90;99.90
21590;DHT22;10957;50.968;6.828;2023-04-06T14:14:43;11.60;99.90
21590;DHT22;10957;50.968;6.828;2023-04-06T14:19:44;11.50;99.90
21590;DHT22;10957;50.968;6.828;2023-04-06T14:24:46;11.60;99.90
21590;DHT22;10957;50.968;6.828;2023-04-06T14:29:47;11.30;99.90
21590;DHT22;10957;50.968;6.828;2023-04-06T14:34:49;11.10;99.90
21590;DHT22;10957;50.968;6.828;2023-04-06T14:39:50;11.00;99.90
21590;DHT22;10957;50.968;6.828;2023-04-06T14:44:52;11.00;99.90
21590;DHT22;10957;50.968;6.828;2023-04-06T14:49:54;10.70;99.90
21590;DHT22;10957;50.968;6.828;2023-04-06T14:54:56;10.60;99.90
21590;DHT22;10957;50.968;6.828;2023-04-06T14:59:57;10.60;99.90
21590;DHT22;10957;50.968;6.828;2023-04-06T15:04:58;10.50;99.90
21590;DHT22;10957;50.968;6.828;2023-04-06T15:10:00;10.40;99.90
21590;DHT22;10957;50.968;6.828;2023-04-06T15:15:01;10.10;99.90
21590;DHT22;10957;50.968;6.828;2023-04-06T15:20:03;10.00;99.90
21590;DHT22;10957;50.968;6.828;2023-04-06T15:25:07;9.80;99.90
21590;DHT22;10957;50.968;6.828;2023-04-06T15:30:10;10.10;1.00
21590;DHT22;10957;50.968;6.828;2023-04-06T15:35:12;9.90;1.00
21590;DHT22;10957;50.968;6.828;2023-04-06T15:40:13;9.70;1.00
21590;DHT22;10957;50.968;6.828;2023-04-06T15:45:16;9.50;1.00
21590;DHT22;10957;50.968;6.828;2023-04-06T15:50:18;9.30;1.00
21590;DHT22;10957;50.968;6.828;2023-04-06T15:55:19;9.30;1.00
21590;DHT22;10957;50.968;6.828;2023-04-06T16:00:21;9.10;1.00
21590;DHT22;10957;50.968;6.828;2023-04-06T16:05:22;9.00;1.00
21590;DHT22;10957;50.968;6.828;2023-04-06T16:10:24;9.10;1.00
21590;DHT22;10957;50.968;6.828;2023-04-06T16:15:25;9.00;1.00
21590;DHT22;10957;50.968;6.828;2023-04-06T16:20:27;8.90;5.40
21590;DHT22;10957;50.968;6.828;2023-04-06T16:25:28;9.00;30.50
21590;DHT22;10957;50.968;6.828;2023-04-06T16:30:30;8.90;84.90
21590;DHT22;10957;50.968;6.828;2023-04-06T16:35:31;8.90;93.20
21590;DHT22;10957;50.968;6.828;2023-04-06T16:40:33;8.90;99.90
21590;DHT22;10957;50.968;6.828;2023-04-06T16:45:35;8.70;99.90
21590;DHT22;10957;50.968;6.828;2023-04-06T16:50:36;8.80;99.90
21590;DHT22;10957;50.968;6.828;2023-04-06T16:55:38;8.50;99.90
21590;DHT22;10957;50.968;6.828;2023-04-06T17:00:40;8.40;99.90
21590;DHT22;10957;50.968;6.828;2023-04-06T17:05:41;8.30;99.90
21590;DHT22;10957;50.968;6.828;2023-04-06T17:10:42;8.30;99.90
21590;DHT22;10957;50.968;6.828;2023-04-06T17:15:44;8.40;99.90
21590;DHT22;10957;50.968;6.828;2023-04-06T17:20:45;8.40;99.90
21590;DHT22;10957;50.968;6.828;2023-04-06T17:25:46;8.50;99.90
21590;DHT22;10957;50.968;6.828;2023-04-06T17:30:47;8.30;99.90
21590;DHT22;10957;50.968;6.828;2023-04-06T17:35:49;8.40;1.00
21590;DHT22;10957;50.968;6.828;2023-04-06T17:40:50;8.20;1.00
21590;DHT22;10957;50.968;6.828;2023-04-06T17:45:52;8.10;1.00
21590;DHT22;10957;50.968;6.828;2023-04-06T17:50:53;8.10;1.00
21590;DHT22;10957;50.968;6.828;2023-04-06T17:55:54;8.10;1.00
21590;DHT22;10957;50.968;6.828;2023-04-06T18:00:56;8.30;1.00
21590;DHT22;10957;50.968;6.828;2023-04-06T18:06:11;8.40;1.00
21590;DHT22;10957;50.968;6.828;2023-04-06T18:11:17;8.00;1.00
21590;DHT22;10957;50.968;6.828;2023-04-06T18:16:18;8.20;1.00
21590;DHT22;10957;50.968;6.828;2023-04-06T18:21:21;8.20;1.00
21590;DHT22;10957;50.968;6.828;2023-04-06T18:26:22;8.10;1.00
21590;DHT22;10957;50.968;6.828;2023-04-06T18:31:24;7.80;1.00
21590;DHT22;10957;50.968;6.828;2023-04-06T18:36:25;8.00;1.00
21590;DHT22;10957;50.968;6.828;2023-04-06T18:41:27;7.90;1.00
21590;DHT22;10957;50.968;6.828;2023-04-06T18:46:28;8.00;1.00
21590;DHT22;10957;50.968;6.828;2023-04-06T18:51:30;8.10;1.00
21590;DHT22;10957;50.968;6.828;2023-04-06T18:56:31;7.50;1.00
21590;DHT22;10957;50.968;6.828;2023-04-06T19:01:33;8.00;1.00
21590;DHT22;10957;50.968;6.828;2023-04-06T19:06:34;7.90;1.00
21590;DHT22;10957;50.968;6.828;2023-04-06T19:11:35;8.00;1.00
21590;DHT22;10957;50.968;6.828;2023-04-06T19:16:36;8.00;1.00
21590;DHT22;10957;50.968;6.828;2023-04-06T19:21:40;7.90;1.00
21590;DHT22;10957;50.968;6.828;2023-04-06T19:26:42;7.70;1.00
21590;DHT22;10957;50.968;6.828;2023-04-06T19:31:43;8.10;1.00
21590;DHT22;10957;50.968;6.828;2023-04-06T19:36:45;7.90;1.00
21590;DHT22;10957;50.968;6.828;2023-04-06T19:41:46;7.60;1.00
21590;DHT22;10957;50.968;6.828;2023-04-06T19:46:47;7.60;1.00
21590;DHT22;10957;50.968;6.828;2023-04-06T19:51:50;7.70;1.00
21590;DHT22;10957;50.968;6.828;2023-04-06T19:56:51;7.70;1.00
21590;DHT22;10957;50.968;6.828;2023-04-06T20:01:52;7.90;1.00
21590;DHT22;10957;50.968;6.828;2023-04-06T20:06:53;7.80;1.00
21590;DHT22;10957;50.968;6.828;2023-04-06T20:11:55;7.60;1.00
21590;DHT22;10957;50.968;6.828;2023-04-06T20:16:56;7.50;1.00
21590;DHT22;10957;50.968;6.828;2023-04-06T20:21:57;7.70;1.00
21590;DHT22;10957;50.968;6.828;2023-04-06T20:26:59;7.20;1.00
21590;DHT22;10957;50.968;6.828;2023-04-06T20:32:01;7.60;1.00
21590;DHT22;10957;50.968;6.828;2023-04-06T20:37:02;7.60;1.00
21590;DHT22;10957;50.968;6.828;2023-04-06T20:42:04;7.50;1.00
21590;DHT22;10957;50.968;6.828;2023-04-06T20:47:05;7.60;1.00
21590;DHT22;10957;50.968;6.828;2023-04-06T20:52:06;7.20;1.00
21590;DHT22;10957;50.968;6.828;2023-04-06T20:57:08;7.70;1.00
21590;DHT22;10957;50.968;6.828;2023-04-06T21:02:09;7.60;1.00
21590;DHT22;10957;50.968;6.828;2023-04-06T21:07:10;7.10;1.00
21590;DHT22;10957;50.968;6.828;2023-04-06T21:12:12;7.80;1.00
21590;DHT22;10957;50.968;6.828;2023-04-06T21:17:13;7.50;1.00
21590;DHT22;10957;50.968;6.828;2023-04-06T21:22:14;7.80;1.00
21590;DHT22;10957;50.968;6.828;2023-04-06T21:27:16;7.70;1.00
21590;DHT22;10957;50.968;6.828;2023-04-06T21:32:17;7.70;1.00
21590;DHT22;10957;50.968;6.828;2023-04-06T21:37:19;7.70;1.00
21590;DHT22;10957;50.968;6.828;2023-04-06T21:42:20;7.20;1.00
21590;DHT22;10957;50.968;6.828;2023-04-06T21:47:21;7.80;1.00
21590;DHT22;10957;50.968;6.828;2023-04-06T21:52:26;7.90;1.00
21590;DHT22;10957;50.968;6.828;2023-04-06T21:57:27;7.90;1.00
21590;DHT22;10957;50.968;6.828;2023-04-06T22:02:28;7.80;1.00
21590;DHT22;10957;50.968;6.828;2023-04-06T22:07:29;7.70;14.70
21590;DHT22;10957;50.968;6.828;2023-04-06T22:12:30;7.50;30.20
21590;DHT22;10957;50.968;6.828;2023-04-06T22:17:32;8.00;43.30
21590;DHT22;10957;50.968;6.828;2023-04-06T22:22:33;8.20;54.50
21590;DHT22;10957;50.968;6.828;2023-04-06T22:27:34;8.10;70.90
21590;DHT22;10957;50.968;6.828;2023-04-06T22:32:36;8.00;91.10
21590;DHT22;10957;50.968;6.828;2023-04-06T22:37:41;8.00;94.40
21590;DHT22;10957;50.968;6.828;2023-04-06T22:42:43;8.00;99.50
21590;DHT22;10957;50.968;6.828;2023-04-06T22:47:44;8.10;99.90
21590;DHT22;10957;50.968;6.828;2023-04-06T22:52:45;7.90;99.90
21590;DHT22;10957;50.968;6.828;2023-04-06T22:57:47;8.20;99.90
21590;DHT22;10957;50.968;6.828;2023-04-06T23:02:48;8.10;99.90
21590;DHT22;10957;50.968;6.828;2023-04-06T23:07:49;8.00;99.90
21590;DHT22;10957;50.968;6.828;2023-04-06T23:12:59;8.00;99.90
21590;DHT22;10957;50.968;6.828;2023-04-06T23:18:06;8.10;99.90
21590;DHT22;10957;50.968;6.828;2023-04-06T23:23:08;8.10;99.90
21590;DHT22;10957;50.968;6.828;2023-04-06T23:28:09;8.10;99.90
21590;DHT22;10957;50.968;6.828;2023-04-06T23:33:11;8.10;99.90
21590;DHT22;10957;50.968;6.828;2023-04-06T23:38:19;8.30;99.90
21590;DHT22;10957;50.968;6.828;2023-04-06T23:43:20;8.20;99.90
21590;DHT22;10957;50.968;6.828;2023-04-06T23:48:22;8.20;99.90
21590;DHT22;10957;50.968;6.828;2023-04-06T23:53:23;8.20;99.90
21590;DHT22;10957;50.968;6.828;2023-04-06T23:58:24;8.50;99.90
